Pointblank, Texas
Current Conditions -  °F | °C
As of 6:53 PM on Thursday 18 Dec 2014 (Local Time) from KUTS Reporting Station
Overcast Overcast  
Wind Chill: 15°   Ceiling: 1000
Heat Index: 15°   Visibility: 10mi
Dew Point: 13°   Wind: 5mph
Humidity: 87%   Direction: 50°NE
Pressure: 30.09"   Gusts: NA
Location:  30.74°N, 95.21°W
Report Text: KUTS 190053Z AUTO 05004KT 10SM OVC010 15/13 A3009 RMK AO2 SLP187 T01500128
Loading
Personal Weather Stations






























Interactive Weather Map New forecast layout! Learn more

10-Day Weather Forecast

Advertisements
Track Severe Weather on mobile